الصفحة الرئيسية
METAR-TAF:

METAR-TAF

مطار :

Rønne, الدنمارك

دائرة عرض: 55-04N, خط طول: 014-45E, ارتفاع: 16 متر

مراقبة الطقس الحالي

تاريخ ووقت الإصدار 33 دقيقة قبل الساعة 00:20UTC
ريح 12 عقدة من الغرب
درجة الحرارة 18°درجة مئوية
الرطوبة 88%
ضغط 1018 hPa
الرؤية 10 كم أو أكثر

METAR: EKRN 180020Z AUTO 28012KT 9999 FEW039/// BKN073/// 18/16 Q1018

زمن: 02:53 (00:53 UTC)

توقعات

تاريخ ووقت الإصدار 1ساعة و 49 دقيقة قبل الساعة 23:04UTC
التوقعات صالحة من18 الساعة 00 UTC إلى 18 الساعة 09 UTC
ريح 10 عقدة من الغرب/الجنوب الغربي
الرؤية 10 كم أو أكثر
غيوم متفرقة على ارتفاع 2000 قدم
مؤقت
من 18 الساعة 00 UTC إلى 18 الساعة 06 UTC
غيوم مفككة على ارتفاع 1200 قدم

TAF: EKRN 172304Z 1800/1809 25010KT 9999 SCT020 TEMPO 1800/1806 BKN012

أرصاد الطقس والتوقعات من أكثر من 4000 مطار (تقارير الطقس للمطار METAR والتنبؤ بالطقس بالمطارTAF).

المحطات المتاحة هي النقط الصفراء والحمراء على الخريطة.

حرك المؤشر فوق النقطة لمعرفة اسم المحطة.

ثم انقر لمعرفة أرصاد وتوقعات الطقس.

لتغيير الخارطة: اضغط على الأزرار الخضراء مع رمز الصليب الأسود للتكبير. على الزر الأخضر مع شرطة للتصغير، أو على الأسهم الخضراء للخرائط المجاورة.


METAR-TAF: